Time;durP1;ratioP1;P1;durP2;ratioP2;P2;SDS_P1;SDS_P2;PMS_P1;PMS_P2;Temp;Humidity;BMP_temperature;BMP_pressure;BME280_temperature;BME280_humidity;BME280_pressure;Samples;Min_cycle;Max_cycle;Signal;HPM_P1;HPM_P2
2021/12/29 00:00:59;;;;;;;30.48;15.23;;;;;;;;;;4981511;28;20034;-64
2021/12/29 00:03:25;;;;;;;38.15;15.27;;;;;;;;;;4985405;28;20864;-64
2021/12/29 00:05:51;;;;;;;35.17;15.15;;;;;;;;;;4981704;28;20027;-64
2021/12/29 00:08:17;;;;;;;34.15;14.82;;;;;;;;;;4982158;28;20045;-64
2021/12/29 00:10:43;;;;;;;31.10;14.48;;;;;;;;;;4981311;28;20553;-65
2021/12/29 00:13:09;;;;;;;40.60;16.90;;;;;;;;;;4980621;28;20146;-65
2021/12/29 00:15:36;;;;;;;32.42;14.65;;;;;;;;;;4981519;28;20114;-66
2021/12/29 00:18:02;;;;;;;29.10;14.75;;;;;;;;;;4980728;28;20098;-64
2021/12/29 00:20:29;;;;;;;28.95;14.63;;;;;;;;;;4981152;28;20049;-65
2021/12/29 00:22:55;;;;;;;32.13;14.88;;;;;;;;;;4981315;28;20027;-65
2021/12/29 00:25:21;;;;;;;29.35;13.68;;;;;;;;;;4980654;28;20077;-64
2021/12/29 00:27:47;;;;;;;34.80;15.40;;;;;;;;;;4981304;28;20946;-65
2021/12/29 00:30:13;;;;;;;29.05;14.88;;;;;;;;;;4979460;28;20093;-64
2021/12/29 00:32:54;;;;;;;35.40;15.40;;;;;;;;;;4981441;28;20042;-64
2021/12/29 00:35:41;;;;;;;37.28;14.95;;;;;;;;;;4980266;28;20108;-65
2021/12/29 00:38:23;;;;;;;29.77;14.30;;;;;;;;;;4981246;28;20153;-65
2021/12/29 00:41:08;;;;;;;32.85;14.90;;;;;;;;;;4978890;28;20128;-65
2021/12/29 00:43:54;;;;;;;33.50;14.75;;;;;;;;;;4980968;28;20030;-64
2021/12/29 00:46:25;;;;;;;37.38;15.00;;;3.00;99.90;;;;;;4978911;28;20038;-64
2021/12/29 00:48:51;;;;;;;44.85;16.10;;;;;;;;;;4981994;28;20030;-65
2021/12/29 00:51:17;;;;;;;32.28;15.50;;;;;;;;;;4980120;28;20510;-65
2021/12/29 00:53:43;;;;;;;40.92;16.52;;;;;;;;;;4982896;28;20439;-65
2021/12/29 00:56:09;;;;;;;32.78;15.30;;;;;;;;;;4980574;28;20041;-65
2021/12/29 00:58:35;;;;;;;31.85;15.50;;;;;;;;;;4983913;28;20036;-65
2021/12/29 01:01:01;;;;;;;49.95;16.80;;;;;;;;;;4980522;28;20765;-65
2021/12/29 01:03:27;;;;;;;36.42;15.75;;;;;;;;;;4982449;28;20037;-65
2021/12/29 01:05:53;;;;;;;41.58;16.48;;;;;;;;;;4981791;28;20106;-65
2021/12/29 01:08:20;;;;;;;39.05;16.65;;;;;;;;;;4980751;28;20855;-65
2021/12/29 01:10:46;;;;;;;36.55;16.05;;;;;;;;;;4986407;28;20038;-65
2021/12/29 01:13:14;;;;;;;34.28;15.25;;;;;;;;;;4983688;28;20041;-65
2021/12/29 01:16:16;;;;;;;37.35;15.82;;;;;;;;;;4984108;28;20042;-65
2021/12/29 01:18:43;;;;;;;32.72;15.40;;;;;;;;;;4994940;28;20558;-65
2021/12/29 01:21:09;;;;;;;51.25;17.10;;;;;;;;;;4983713;28;20045;-64
2021/12/29 01:23:35;;;;;;;34.13;14.95;;;;;;;;;;4983929;28;20113;-65
2021/12/29 01:26:01;;;;;;;41.10;16.95;;;;;;;;;;4983453;28;20060;-65
2021/12/29 01:28:27;;;;;;;38.10;15.43;;;;;;;;;;4983814;28;20082;-65
2021/12/29 01:30:53;;;;;;;41.10;17.33;;;;;;;;;;4986164;28;20387;-65
2021/12/29 01:33:19;;;;;;;44.25;15.63;;;;;;;;;;4982817;28;20041;-65
2021/12/29 01:35:45;;;;;;;31.83;14.52;;;;;;;;;;4983476;28;20049;-65
2021/12/29 01:38:11;;;;;;;37.70;15.63;;;3.20;99.90;;;;;;4982464;28;20034;-65
2021/12/29 01:40:37;;;;;;;39.78;15.80;;;;;;;;;;4982919;28;20157;-65
2021/12/29 01:43:03;;;;;;;49.97;16.98;;;;;;;;;;4985908;28;20066;-65
2021/12/29 01:45:29;;;;;;;43.22;16.45;;;;;;;;;;4984995;28;20210;-65
2021/12/29 01:47:55;;;;;;;44.17;16.30;;;;;;;;;;4984494;28;20089;-65
2021/12/29 01:50:21;;;;;;;40.10;16.48;;;;;;;;;;4984861;28;20035;-65
2021/12/29 01:52:54;;;;;;;52.53;17.75;;;;;;;;;;4984300;28;20114;-65
2021/12/29 01:55:20;;;;;;;46.97;16.65;;;;;;;;;;4990096;28;20037;-65
2021/12/29 01:57:46;;;;;;;45.53;17.60;;;;;;;;;;4983398;28;20065;-64
2021/12/29 02:00:12;;;;;;;49.42;17.67;;;;;;;;;;4984284;28;20129;-64
2021/12/29 02:02:38;;;;;;;51.00;17.58;;;;;;;;;;4982647;28;20764;-65
2021/12/29 02:05:04;;;;;;;58.83;18.70;;;;;;;;;;4983403;28;20034;-65
2021/12/29 02:07:31;;;;;;;43.75;17.42;;;;;;;;;;4983210;28;20030;-65
2021/12/29 02:09:57;;;;;;;49.22;17.55;;;;;;;;;;4982905;28;20030;-65
2021/12/29 02:12:23;;;;;;;35.42;16.27;;;;;;;;;;4984924;28;20132;-65
2021/12/29 02:14:49;;;;;;;42.72;15.77;;;;;;;;;;4983892;28;20053;-65
2021/12/29 02:17:15;;;;;;;44.28;16.70;;;;;;;;;;4983312;28;20034;-65
2021/12/29 02:19:45;;;;;;;53.85;18.95;;;;;;;;;;4982522;28;20074;-65
2021/12/29 02:22:22;;;;;;;41.45;16.23;;;;;;;;;;4982502;28;20459;-65
2021/12/29 02:24:54;;;;;;;34.53;14.48;;;;;;;;;;4984260;28;20037;-65
2021/12/29 02:27:20;;;;;;;36.65;15.75;;;;;;;;;;4982302;28;20046;-65
2021/12/29 02:29:47;;;;;;;38.25;15.30;;;;;;;;;;4983012;28;20093;-65
2021/12/29 02:32:13;;;;;;;38.97;15.95;;;;;;;;;;4981982;28;20686;-65
2021/12/29 02:34:39;;;;;;;35.28;14.25;;;;;;;;;;4982778;28;20042;-65
2021/12/29 02:37:05;;;;;;;36.88;15.23;;;;;;;;;;4983312;28;20044;-65
2021/12/29 02:39:33;;;;;;;37.28;15.10;;;;;;;;;;4982510;28;20447;-65
2021/12/29 02:41:59;;;;;;;42.53;15.63;;;;;;;;;;4984102;28;20030;-65
2021/12/29 02:44:29;;;;;;;52.13;16.45;;;;;;;;;;4982172;28;20506;-65
2021/12/29 02:46:55;;;;;;;43.50;15.52;;;;;;;;;;4982277;28;20129;-65
2021/12/29 02:49:21;;;;;;;43.20;15.98;;;4.30;99.90;;;;;;4986029;28;20097;-65
2021/12/29 02:51:47;;;;;;;53.33;16.52;;;4.30;99.90;;;;;;4986240;28;20038;-65
2021/12/29 02:54:13;;;;;;;57.45;17.95;;;;;;;;;;4981909;28;20033;-65
2021/12/29 02:56:39;;;;;;;56.00;18.10;;;;;;;;;;4982049;28;20145;-65
2021/12/29 02:59:05;;;;;;;58.85;17.70;;;;;;;;;;4982245;28;20030;-65
2021/12/29 03:01:31;;;;;;;46.92;16.67;;;;;;;;;;4996645;28;20071;-65
2021/12/29 03:03:57;;;;;;;41.20;14.55;;;;;;;;;;4983946;28;20046;-64
2021/12/29 03:06:23;;;;;;;38.03;15.05;;;;;;;;;;4982285;28;20437;-65
2021/12/29 03:08:49;;;;;;;46.30;14.38;;;;;;;;;;4982258;28;20060;-65
2021/12/29 03:11:15;;;;;;;35.20;13.68;;;;;;;;;;4982120;28;20085;-65
2021/12/29 03:13:41;;;;;;;28.05;12.32;;;;;;;;;;4981898;28;20054;-65
2021/12/29 03:16:07;;;;;;;38.33;13.70;;;;;;;;;;4981638;28;20038;-65
2021/12/29 03:18:33;;;;;;;38.22;13.38;;;;;;;;;;4982346;28;20089;-65
2021/12/29 03:20:59;;;;;;;34.95;12.38;;;;;;;;;;4984171;28;20553;-65
2021/12/29 03:23:25;;;;;;;37.58;13.07;;;;;;;;;;4981447;28;20037;-65
2021/12/29 03:25:52;;;;;;;29.65;12.43;;;;;;;;;;4982283;28;20117;-65
2021/12/29 03:28:18;;;;;;;30.73;11.50;;;;;;;;;;4982512;28;20038;-65
2021/12/29 03:30:48;;;;;;;44.78;14.13;;;;;;;;;;4981728;28;20030;-65
2021/12/29 03:33:13;;;;;;;50.45;14.32;;;;;;;;;;4985837;28;20030;-65
2021/12/29 03:35:39;;;;;;;48.95;15.70;;;;;;;;;;4981938;28;20449;-65
2021/12/29 03:38:05;;;;;;;47.95;14.82;;;;;;;;;;4981180;28;20583;-65
2021/12/29 03:40:31;;;;;;;44.85;14.38;;;;;;;;;;4982614;28;20044;-65
2021/12/29 03:42:57;;;;;;;49.90;14.80;;;;;;;;;;4981816;28;20104;-64
2021/12/29 03:45:23;;;;;;;57.08;15.35;;;;;;;;;;4988383;28;20042;-65
2021/12/29 03:47:49;;;;;;;57.03;14.30;;;;;;;;;;4981593;28;20053;-65
2021/12/29 03:50:15;;;;;;;50.10;13.57;;;;;;;;;;4981331;28;20034;-64
2021/12/29 03:52:42;;;;;;;45.03;13.02;;;;;;;;;;4981288;28;20034;-64
2021/12/29 03:55:08;;;;;;;38.20;13.98;;;;;;;;;;4981135;28;20034;-64
2021/12/29 03:57:33;;;;;;;59.10;16.17;;;2.80;99.90;;;;;;4981364;28;20029;-64
2021/12/29 03:59:59;;;;;;;53.92;14.75;;;;;;;;;;4981100;28;20030;-64
2021/12/29 04:02:25;;;;;;;54.60;15.10;;;;;;;;;;4981242;28;20093;-64
2021/12/29 04:04:52;;;;;;;52.13;15.80;;;;;;;;;;4983773;28;20026;-65
2021/12/29 04:07:18;;;;;;;64.85;16.60;;;;;;;;;;4981340;28;20121;-65
2021/12/29 04:09:44;;;;;;;72.68;17.85;;;;;;;;;;4981979;28;20145;-65
2021/12/29 04:12:10;;;;;;;70.35;17.83;;;;;;;;;;4981528;28;20030;-64
2021/12/29 04:14:36;;;;;;;70.25;18.58;;;;;;;;;;4980766;28;20777;-65
2021/12/29 04:17:09;;;;;;;58.67;16.13;;;;;;;;;;4981828;28;20149;-65
2021/12/29 04:20:54;;;;;;;62.72;17.17;;;;;;;;;;4979953;28;20549;-65
2021/12/29 04:22:26;;;;;;;67.25;16.25;;;;;;;;;;4982151;28;20030;-65
2021/12/29 04:24:52;;;;;;;68.13;17.42;;;;;;;;;;4980950;28;20620;-65
2021/12/29 04:27:22;;;;;;;73.30;18.02;;;;;;;;;;4980978;28;20118;-65
2021/12/29 04:29:48;;;;;;;70.80;17.50;;;;;;;;;;4980705;28;20038;-65
2021/12/29 04:32:14;;;;;;;81.65;18.35;;;;;;;;;;4979322;28;20050;-66
2021/12/29 04:34:40;;;;;;;66.28;16.73;;;;;;;;;;4980681;28;20115;-65
2021/12/29 04:37:05;;;;;;;68.65;17.10;;;;;;;;;;4980749;28;20597;-65
2021/12/29 04:39:31;;;;;;;62.05;16.65;;;;;;;;;;4980969;28;20509;-65
2021/12/29 04:41:57;;;;;;;68.07;15.48;;;;;;;;;;4983435;28;20129;-65
2021/12/29 04:44:24;;;;;;;62.45;15.15;;;;;;;;;;4980561;28;20030;-65
2021/12/29 04:46:50;;;;;;;68.20;15.95;;;;;;;;;;4983630;28;20146;-65
2021/12/29 04:49:22;;;;;;;56.83;14.68;;;;;;;;;;4983456;28;20118;-65
2021/12/29 04:51:55;;;;;;;53.40;14.40;;;;;;;;;;4983867;28;20044;-65
2021/12/29 04:54:21;;;;;;;56.65;14.65;;;3.30;99.90;;;;;;4984003;28;20050;-65
2021/12/29 04:56:47;;;;;;;59.83;15.90;;;;;;;;;;4984561;28;20037;-65
2021/12/29 04:59:15;;;;;;;67.80;16.35;;;;;;;;;;4987419;28;20789;-65
2021/12/29 05:01:41;;;;;;;52.20;13.65;;;;;;;;;;4984051;28;20455;-65
2021/12/29 05:04:07;;;;;;;54.40;14.93;;;;;;;;;;4983575;28;20125;-65
2021/12/29 05:09:17;;;;;;;64.50;15.15;;;;;;;;;;4984018;28;20030;-65
2021/12/29 05:11:43;;;;;;;58.97;14.77;;;4.20;99.90;;;;;;4987014;28;20088;-65
2021/12/29 05:14:09;;;;;;;53.45;14.00;;;;;;;;;;4985476;28;20030;-65
2021/12/29 05:16:35;;;;;;;61.55;15.05;;;;;;;;;;4985245;28;20579;-65
2021/12/29 05:19:01;;;;;;;53.60;15.30;;;;;;;;;;4983760;28;20117;-65
2021/12/29 05:21:27;;;;;;;56.97;14.93;;;;;;;;;;4983496;28;20048;-65
2021/12/29 05:23:53;;;;;;;62.65;15.05;;;;;;;;;;4988495;28;20069;-65
2021/12/29 05:26:19;;;;;;;59.15;13.80;;;;;;;;;;4987455;28;20026;-65
2021/12/29 05:28:45;;;;;;;51.33;13.90;;;;;;;;;;4983332;28;20085;-65
2021/12/29 05:31:11;;;;;;;65.20;16.83;;;;;;;;;;4983069;28;20038;-65
2021/12/29 05:33:37;;;;;;;62.15;15.40;;;;;;;;;;4979526;28;20590;-66
2021/12/29 05:36:03;;;;;;;70.50;15.50;;;;;;;;;;4983163;28;20499;-65
2021/12/29 05:38:29;;;;;;;81.85;16.98;;;;;;;;;;4983645;28;20129;-65
2021/12/29 05:40:55;;;;;;;62.78;15.50;;;;;;;;;;4985223;28;20038;-65
2021/12/29 05:43:21;;;;;;;70.45;14.80;;;;;;;;;;4982889;28;20050;-65
2021/12/29 05:45:49;;;;;;;55.97;14.32;;;;;;;;;;4983272;28;20034;-65
2021/12/29 05:48:15;;;;;;;70.65;15.93;;;;;;;;;;4983363;28;20113;-65
2021/12/29 05:50:40;;;;;;;57.25;14.38;;;4.00;99.90;;;;;;4988680;28;20770;-65
2021/12/29 05:53:05;;;;;;;58.35;15.07;;;4.00;99.90;;;;;;4983248;28;20438;-65
2021/12/29 05:55:31;;;;;;;49.25;14.27;;;;;;;;;;4983735;28;20037;-65
2021/12/29 05:57:57;;;;;;;47.75;13.77;;;;;;;;;;4984818;28;20125;-65
2021/12/29 06:00:23;;;;;;;43.65;13.07;;;;;;;;;;4984198;28;20092;-65
2021/12/29 06:02:49;;;;;;;54.80;13.80;;;;;;;;;;4982970;28;20038;-65
2021/12/29 06:05:15;;;;;;;41.25;13.05;;;;;;;;;;4990710;28;20526;-65
2021/12/29 06:07:41;;;;;;;59.03;14.73;;;;;;;;;;4984151;28;20095;-65
2021/12/29 06:10:07;;;;;;;44.92;13.70;;;;;;;;;;4984072;28;20877;-70
2021/12/29 06:12:33;;;;;;;57.65;14.05;;;3.70;99.90;;;;;;4983808;28;20038;-69
2021/12/29 06:14:59;;;;;;;50.53;13.35;;;;;;;;;;4984578;28;20153;-68
2021/12/29 06:17:25;;;;;;;85.22;16.27;;;;;;;;;;4986416;28;20909;-68
2021/12/29 06:19:51;;;;;;;61.72;15.25;;;;;;;;;;4990659;28;20277;-69
2021/12/29 06:22:16;;;;;;;66.15;15.13;;;4.40;99.90;;;;;;4982507;28;20041;-69
2021/12/29 06:24:42;;;;;;;56.55;14.73;;;;;;;;;;4982649;28;20129;-68
2021/12/29 06:27:08;;;;;;;76.40;14.98;;;;;;;;;;4982293;28;20034;-68
2021/12/29 06:29:34;;;;;;;61.92;14.00;;;;;;;;;;4982239;28;20092;-68
2021/12/29 06:32:00;;;;;;;45.67;13.85;;;;;;;;;;4982903;28;20069;-68
2021/12/29 06:34:26;;;;;;;52.65;13.77;;;;;;;;;;4986654;28;20042;-68
2021/12/29 06:36:52;;;;;;;50.97;12.70;;;;;;;;;;4980823;28;20041;-68
2021/12/29 06:39:18;;;;;;;39.80;11.80;;;;;;;;;;4983069;28;20454;-68
2021/12/29 06:41:45;;;;;;;36.83;11.48;;;;;;;;;;4982872;28;20038;-68
2021/12/29 06:44:11;;;;;;;39.15;11.57;;;;;;;;;;4982433;28;20054;-68
2021/12/29 06:46:37;;;;;;;31.52;10.20;;;;;;;;;;4983184;28;20346;-69
2021/12/29 06:49:03;;;;;;;36.35;11.43;;;;;;;;;;4983692;28;20154;-68
2021/12/29 06:51:29;;;;;;;38.83;12.25;;;;;;;;;;4982218;28;20066;-68
2021/12/29 06:53:55;;;;;;;40.08;11.02;;;;;;;;;;4982439;28;20398;-68
2021/12/29 06:56:21;;;;;;;29.88;11.02;;;;;;;;;;4982732;28;20077;-68
2021/12/29 06:58:46;;;;;;;42.53;11.73;;;;;;;;;;4982040;28;20052;-68
2021/12/29 07:01:13;;;;;;;38.63;11.63;;;;;;;;;;4990098;28;20066;-69
2021/12/29 07:03:39;;;;;;;34.88;12.20;;;;;;;;;;4982385;28;20584;-68
2021/12/29 07:06:05;;;;;;;34.85;10.90;;;;;;;;;;4982701;28;20105;-68
2021/12/29 07:08:31;;;;;;;47.03;12.75;;;;;;;;;;4983122;28;20617;-68
2021/12/29 07:10:57;;;;;;;48.47;12.70;;;;;;;;;;4981894;28;20053;-68
2021/12/29 07:13:23;;;;;;;45.65;11.63;;;;;;;;;;4982446;28;20537;-69
2021/12/29 07:15:49;;;;;;;38.67;12.38;;;;;;;;;;4987873;28;20034;-68
2021/12/29 07:18:15;;;;;;;42.10;12.85;;;;;;;;;;4982390;28;20037;-68
2021/12/29 07:20:43;;;;;;;33.58;11.45;;;;;;;;;;4983362;28;20045;-68
2021/12/29 07:23:09;;;;;;;44.47;12.15;;;;;;;;;;4981715;28;20046;-68
2021/12/29 07:25:35;;;;;;;45.03;12.10;;;;;;;;;;4983054;28;20030;-68
2021/12/29 07:28:01;;;;;;;39.30;12.55;;;;;;;;;;4981247;28;20035;-68
2021/12/29 07:30:27;;;;;;;53.03;15.43;;;;;;;;;;4981067;28;20038;-68
2021/12/29 07:32:53;;;;;;;77.63;30.30;;;;;;;;;;4993047;28;20074;-68
2021/12/29 07:35:20;;;;;;;68.95;24.67;;;;;;;;;;4980557;28;20117;-68
2021/12/29 07:37:45;;;;;;;61.00;19.20;;;;;;;;;;4981244;28;20053;-68
2021/12/29 07:40:11;;;;;;;53.28;19.15;;;;;;;;;;4980890;28;20033;-68
2021/12/29 07:42:38;;;;;;;60.42;21.33;;;;;;;;;;4984288;28;20042;-68
2021/12/29 07:45:06;;;;;;;63.20;28.63;;;;;;;;;;4984855;28;20141;-68
2021/12/29 07:47:33;;;;;;;65.85;20.40;;;;;;;;;;4979536;28;20795;-69
2021/12/29 07:49:59;;;;;;;66.88;20.65;;;;;;;;;;4980498;28;20039;-69
2021/12/29 07:52:25;;;;;;;78.85;25.80;;;;;;;;;;4980840;28;20041;-68
2021/12/29 07:54:51;;;;;;;77.93;25.33;;;;;;;;;;4980434;28;20037;-68
2021/12/29 07:57:17;;;;;;;65.15;15.55;;;;;;;;;;4980853;28;20085;-68
2021/12/29 07:59:42;;;;;;;65.55;16.10;;;;;;;;;;4981116;28;20651;-68
2021/12/29 08:02:08;;;;;;;67.95;15.43;;;;;;;;;;4985044;28;20677;-68
2021/12/29 08:04:34;;;;;;;67.05;18.67;;;;;;;;;;4980643;28;20056;-68
2021/12/29 08:07:00;;;;;;;70.47;20.45;;;;;;;;;;4981362;28;20046;-68
2021/12/29 08:09:26;;;;;;;64.65;19.63;;;;;;;;;;4981247;28;20038;-69
2021/12/29 08:11:52;;;;;;;66.60;19.30;;;;;;;;;;4983764;28;20035;-68
2021/12/29 08:14:18;;;;;;;51.45;15.35;;;;;;;;;;4980710;28;20042;-68
2021/12/29 08:16:45;;;;;;;59.83;19.63;;;;;;;;;;4981486;28;20049;-68
2021/12/29 08:19:10;;;;;;;73.13;20.05;;;;;;;;;;4980794;28;20407;-68
2021/12/29 08:21:36;;;;;;;58.47;17.70;;;;;;;;;;4974514;28;20039;-68
2021/12/29 08:24:02;;;;;;;67.25;20.10;;;;;;;;;;4971974;28;20034;-68
2021/12/29 08:26:28;;;;;;;63.50;19.02;;;;;;;;;;4999836;28;20037;-68
2021/12/29 08:28:57;;;;;;;54.53;17.90;;;;;;;;;;4987799;28;20510;-68
2021/12/29 08:31:23;;;;;;;72.40;18.45;;;;;;;;;;4985174;28;20034;-68
2021/12/29 08:33:49;;;;;;;60.58;18.38;;;;;;;;;;4984509;28;20041;-68
2021/12/29 08:36:15;;;;;;;65.43;19.17;;;;;;;;;;4983427;28;20034;-69
2021/12/29 08:38:41;;;;;;;49.65;16.25;;;;;;;;;;4984456;28;20733;-69
2021/12/29 08:41:07;;;;;;;58.63;15.65;;;;;;;;;;4983569;28;20065;-68
2021/12/29 08:43:33;;;;;;;76.18;19.23;;;;;;;;;;4992787;28;20045;-69
2021/12/29 08:45:59;;;;;;;83.80;24.13;;;;;;;;;;4985987;28;20038;-68
2021/12/29 08:48:25;;;;;;;90.38;29.00;;;;;;;;;;4984077;28;20030;-68
2021/12/29 08:50:51;;;;;;;68.75;20.05;;;;;;;;;;4983347;28;20609;-68
2021/12/29 08:53:17;;;;;;;64.18;17.52;;;;;;;;;;4990897;28;20384;-68
2021/12/29 08:55:46;;;;;;;68.00;18.35;;;;;;;;;;4974076;28;20039;-68
2021/12/29 08:58:12;;;;;;;73.50;19.13;;;5.20;99.90;;;;;;4980490;28;20049;-68
2021/12/29 09:00:38;;;;;;;60.13;19.38;;;;;;;;;;4975789;28;20042;-68
2021/12/29 09:03:04;;;;;;;88.88;31.08;;;;;;;;;;4974459;28;20862;-68
2021/12/29 09:05:30;;;;;;;81.95;24.00;;;;;;;;;;4973122;28;20030;-68
2021/12/29 09:07:56;;;;;;;96.18;26.75;;;;;;;;;;4971894;28;20625;-68
2021/12/29 09:10:22;;;;;;;79.05;19.20;;;;;;;;;;4977121;28;20026;-69
2021/12/29 09:12:50;;;;;;;114.90;47.90;;;;;;;;;;4977901;28;20105;-68
2021/12/29 09:15:15;;;;;;;81.70;23.52;;;;;;;;;;4972105;28;20019;-68
2021/12/29 09:17:41;;;;;;;83.05;28.55;;;;;;;;;;4972316;28;20866;-69
2021/12/29 09:20:14;;;;;;;80.13;28.00;;;;;;;;;;4983353;28;20133;-68
2021/12/29 09:22:40;;;;;;;65.10;17.83;;;;;;;;;;4974077;28;20052;-68
2021/12/29 09:25:07;;;;;;;95.53;36.88;;;;;;;;;;4972845;28;20035;-68
2021/12/29 09:27:33;;;;;;;74.78;21.92;;;;;;;;;;4973496;28;20076;-68
2021/12/29 09:29:59;;;;;;;82.22;24.35;;;;;;;;;;4976737;28;20026;-68
2021/12/29 09:32:30;;;;;;;70.18;19.38;;;;;;;;;;4969387;28;20487;-68
2021/12/29 09:34:59;;;;;;;60.65;17.90;;;;;;;;;;4977618;28;20060;-68
2021/12/29 09:37:25;;;;;;;77.75;18.05;;;;;;;;;;4975524;28;20112;-68
2021/12/29 09:39:51;;;;;;;65.13;17.50;;;4.70;99.90;;;;;;4976032;28;20035;-68
2021/12/29 09:42:17;;;;;;;70.75;21.73;;;;;;;;;;4972129;28;20414;-68
2021/12/29 09:44:43;;;;;;;60.35;23.95;;;;;;;;;;4979257;28;20046;-68
2021/12/29 09:47:10;;;;;;;56.40;18.25;;;;;;;;;;4973246;28;20067;-68
2021/12/29 09:49:37;;;;;;;53.78;16.98;;;;;;;;;;4966934;28;20392;-68
2021/12/29 09:52:03;;;;;;;109.32;39.60;;;;;;;;;;4986629;28;20042;-68
2021/12/29 09:54:29;;;;;;;100.93;32.72;;;;;;;;;;4973979;28;20037;-68
2021/12/29 09:56:55;;;;;;;134.13;46.58;;;;;;;;;;4973718;28;20041;-68
2021/12/29 09:59:21;;;;;;;119.85;36.70;;;5.80;99.90;;;;;;4981257;28;20406;-68
2021/12/29 10:01:46;;;;;;;69.43;21.25;;;5.20;99.90;;;;;;4982090;28;20030;-68
2021/12/29 10:04:14;;;;;;;66.70;27.13;;;;;;;;;;4982128;28;20390;-68
2021/12/29 10:06:40;;;;;;;56.53;19.33;;;;;;;;;;4985051;28;20041;-69
2021/12/29 10:09:06;;;;;;;51.55;18.67;;;;;;;;;;4984748;28;20041;-68
2021/12/29 10:11:36;;;;;;;45.10;15.43;;;6.00;99.90;;;;;;4982247;28;20030;-68
2021/12/29 10:14:02;;;;;;;56.88;18.58;;;;;;;;;;4982404;28;20038;-68
2021/12/29 10:16:29;;;;;;;49.47;16.98;;;;;;;;;;4983344;28;20042;-68
2021/12/29 10:18:55;;;;;;;48.60;18.70;;;;;;;;;;4989160;28;20049;-68
2021/12/29 10:21:22;;;;;;;55.58;19.00;;;;;;;;;;4985594;28;20038;-68
2021/12/29 10:23:48;;;;;;;58.05;18.58;;;;;;;;;;4986308;28;20042;-68
2021/12/29 10:26:14;;;;;;;65.43;22.63;;;;;;;;;;4983653;28;20152;-68
2021/12/29 10:28:40;;;;;;;83.28;21.27;;;;;;;;;;4984768;28;20046;-68
2021/12/29 10:31:05;;;;;;;72.03;21.08;;;6.00;99.90;;;;;;4989081;28;20034;-68
2021/12/29 10:33:31;;;;;;;86.80;28.80;;;;;;;;;;4991425;28;20115;-68
2021/12/29 10:35:57;;;;;;;265.70;95.82;;;;;;;;;;4985971;28;20047;-67
2021/12/29 10:38:23;;;;;;;199.15;68.35;;;;;;;;;;4988845;28;20038;-68
2021/12/29 10:40:50;;;;;;;147.75;47.90;;;;;;;;;;4982125;28;20046;-68
2021/12/29 10:43:15;;;;;;;90.85;28.40;;;;;;;;;;4981485;28;20034;-68
2021/12/29 10:45:41;;;;;;;81.47;28.23;;;;;;;;;;4986445;28;20405;-69
2021/12/29 10:48:07;;;;;;;80.22;23.00;;;;;;;;;;4987327;28;20226;-69
2021/12/29 10:50:33;;;;;;;99.55;23.05;;;;;;;;;;4982039;28;20056;-68
2021/12/29 10:52:59;;;;;;;83.45;23.13;;;;;;;;;;4980874;28;20490;-71
2021/12/29 10:55:31;;;;;;;83.32;28.52;;;;;;;;;;4984761;28;20081;-68
2021/12/29 10:57:57;;;;;;;82.97;23.45;;;;;;;;;;4967802;28;20100;-69
2021/12/29 11:00:23;;;;;;;95.75;27.67;;;;;;;;;;4990731;28;20483;-68
2021/12/29 11:02:49;;;;;;;82.57;22.60;;;;;;;;;;4982756;28;20046;-70
2021/12/29 11:05:15;;;;;;;96.85;28.25;;;;;;;;;;4983230;28;20034;-70
2021/12/29 11:07:41;;;;;;;70.53;21.33;;;;;;;;;;4987318;28;20033;-68
2021/12/29 11:10:07;;;;;;;66.95;21.92;;;;;;;;;;4978382;28;20081;-68
2021/12/29 11:12:33;;;;;;;78.60;21.25;;;;;;;;;;4982425;28;20038;-69
2021/12/29 11:14:59;;;;;;;72.80;21.23;;;;;;;;;;4982123;28;20039;-67
2021/12/29 11:17:25;;;;;;;70.70;22.33;;;;;;;;;;4987085;28;20030;-68
2021/12/29 11:19:51;;;;;;;77.43;25.60;;;6.90;99.90;;;;;;4981343;28;20483;-67
2021/12/29 11:22:17;;;;;;;82.88;23.25;;;;;;;;;;4986686;28;20038;-67
2021/12/29 11:24:43;;;;;;;77.82;22.98;;;;;;;;;;4981256;28;20026;-67
2021/12/29 11:27:09;;;;;;;84.10;22.23;;;;;;;;;;4987196;28;20045;-69
2021/12/29 11:29:35;;;;;;;79.40;23.35;;;;;;;;;;4981720;28;20106;-69
2021/12/29 11:32:01;;;;;;;83.47;23.85;;;;;;;;;;4984271;28;20050;-69
2021/12/29 11:34:27;;;;;;;82.80;23.08;;;;;;;;;;4981399;28;20026;-69
2021/12/29 11:36:53;;;;;;;84.57;23.13;;;;;;;;;;4981889;28;20544;-68
2021/12/29 11:39:19;;;;;;;84.93;23.27;;;;;;;;;;4981563;28;20038;-68
2021/12/29 11:41:45;;;;;;;85.10;23.20;;;6.30;99.90;;;;;;4984546;28;20038;-68
2021/12/29 11:44:11;;;;;;;86.47;22.75;;;;;;;;;;4980868;28;20494;-68
2021/12/29 11:46:37;;;;;;;86.28;24.67;;;;;;;;;;4981048;28;20042;-68
2021/12/29 11:49:04;;;;;;;84.13;24.80;;;;;;;;;;4981524;28;20076;-68
2021/12/29 11:51:30;;;;;;;84.57;25.67;;;;;;;;;;4981178;28;20033;-64
2021/12/29 11:53:56;;;;;;;88.55;24.95;;;6.50;99.90;;;;;;4980477;28;20442;-65
2021/12/29 11:56:21;;;;;;;81.05;22.88;;;6.80;99.90;;;;;;4980653;28;20145;-64
2021/12/29 11:58:47;;;;;;;82.28;23.65;;;;;;;;;;4981013;28;20042;-64
2021/12/29 12:01:13;;;;;;;92.88;24.90;;;;;;;;;;4982920;28;20041;-65
2021/12/29 12:03:39;;;;;;;82.70;23.08;;;;;;;;;;4980547;28;20061;-64
2021/12/29 12:06:08;;;;;;;80.50;22.23;;;;;;;;;;4964206;28;20038;-64
2021/12/29 12:08:34;;;;;;;79.22;22.98;;;;;;;;;;4977616;28;20486;-64
2021/12/29 12:11:01;;;;;;;82.68;23.58;;;;;;;;;;4981105;28;20121;-64
2021/12/29 12:13:27;;;;;;;83.07;23.88;;;;;;;;;;4980477;28;20041;-65
2021/12/29 12:15:53;;;;;;;84.88;23.52;;;;;;;;;;4981962;28;20384;-65
2021/12/29 12:18:19;;;;;;;79.47;23.20;;;;;;;;;;4980868;28;20069;-64
2021/12/29 12:20:45;;;;;;;80.57;25.55;;;;;;;;;;4980772;28;20108;-64
2021/12/29 12:23:16;;;;;;;100.45;25.20;;;;;;;;;;4969541;28;20034;-64
2021/12/29 12:25:42;;;;;;;84.22;22.42;;;;;;;;;;4981315;28;20042;-64
2021/12/29 12:28:07;;;;;;;86.75;22.98;;;;;;;;;;4983728;28;20045;-64
2021/12/29 12:30:33;;;;;;;85.70;22.73;;;;;;;;;;4980584;28;20022;-64
2021/12/29 12:32:59;;;;;;;91.60;23.92;;;;;;;;;;4980229;28;20589;-64
2021/12/29 12:35:25;;;;;;;93.75;23.17;;;;;;;;;;4980573;28;20118;-65
2021/12/29 12:37:51;;;;;;;91.68;22.80;;;;;;;;;;4980529;28;20109;-65
2021/12/29 12:40:17;;;;;;;99.53;23.90;;;;;;;;;;4980849;28;20880;-65
2021/12/29 12:42:43;;;;;;;85.75;22.10;;;;;;;;;;4982355;28;20749;-65
2021/12/29 12:45:10;;;;;;;92.10;23.38;;;;;;;;;;4979967;28;20081;-64
2021/12/29 12:47:36;;;;;;;83.40;22.00;;;;;;;;;;4977162;28;20645;-64
2021/12/29 12:50:01;;;;;;;94.35;23.30;;;6.20;99.90;;;;;;4995416;28;20030;-65
2021/12/29 12:52:27;;;;;;;99.18;23.88;;;;;;;;;;4980135;28;20869;-65
2021/12/29 12:54:53;;;;;;;91.53;23.42;;;;;;;;;;4980179;28;20541;-65
2021/12/29 12:57:19;;;;;;;94.03;23.20;;;;;;;;;;4980540;28;20042;-65
2021/12/29 12:59:45;;;;;;;91.28;23.05;;;6.20;99.90;;;;;;4964936;28;20045;-65
2021/12/29 13:02:11;;;;;;;93.72;23.00;;;;;;;;;;4979769;28;20026;-65
2021/12/29 13:04:37;;;;;;;116.40;24.63;;;;;;;;;;4985606;28;20374;-65
2021/12/29 13:07:03;;;;;;;99.40;22.45;;;;;;;;;;4980844;28;20033;-66
2021/12/29 13:09:30;;;;;;;99.90;23.45;;;;;;;;;;4970641;28;20506;-65
2021/12/29 13:11:56;;;;;;;97.90;22.38;;;;;;;;;;4985276;28;20034;-65
2021/12/29 13:14:22;;;;;;;109.07;23.85;;;;;;;;;;4983130;28;20743;-65
2021/12/29 13:16:48;;;;;;;107.05;24.00;;;;;;;;;;4984012;28;20030;-65
2021/12/29 13:19:14;;;;;;;102.13;24.17;;;;;;;;;;4983607;28;20602;-65
2021/12/29 13:21:41;;;;;;;104.68;24.65;;;6.30;99.90;;;;;;4983186;28;20084;-65
2021/12/29 13:24:07;;;;;;;112.25;25.20;;;;;;;;;;4982191;28;20042;-65
2021/12/29 13:26:33;;;;;;;108.93;24.17;;;;;;;;;;4982894;28;20576;-66
2021/12/29 13:28:59;;;;;;;107.28;25.85;;;;;;;;;;4982770;28;20065;-66
2021/12/29 13:31:25;;;;;;;109.60;25.17;;;;;;;;;;4985615;28;20173;-64
2021/12/29 13:33:51;;;;;;;106.68;25.33;;;6.20;99.90;;;;;;4982743;28;20161;-64
2021/12/29 13:36:17;;;;;;;114.63;24.98;;;;;;;;;;4983071;28;20459;-65
2021/12/29 13:38:43;;;;;;;122.05;25.83;;;;;;;;;;4984656;28;20434;-65
2021/12/29 13:41:09;;;;;;;112.38;24.95;;;;;;;;;;4983600;28;20026;-64
2021/12/29 13:43:35;;;;;;;111.85;24.42;;;;;;;;;;4982631;28;20034;-64
2021/12/29 13:46:01;;;;;;;124.80;25.25;;;;;;;;;;4982770;28;20526;-64
2021/12/29 13:48:27;;;;;;;100.53;23.98;;;;;;;;;;4971241;28;20034;-65
2021/12/29 13:50:53;;;;;;;113.65;25.52;;;;;;;;;;4983370;28;20062;-65
2021/12/29 13:53:19;;;;;;;114.13;24.58;;;;;;;;;;4982641;28;20571;-65
2021/12/29 13:55:45;;;;;;;105.50;25.15;;;;;;;;;;4974391;28;20023;-66
2021/12/29 13:58:11;;;;;;;117.40;25.58;;;;;;;;;;4973970;28;20073;-66
2021/12/29 14:00:37;;;;;;;109.82;23.92;;;5.60;99.90;;;;;;4980633;28;20045;-66
2021/12/29 14:03:03;;;;;;;127.28;25.98;;;;;;;;;;4983302;28;20769;-65
2021/12/29 14:05:29;;;;;;;100.80;24.42;;;;;;;;;;4986229;28;20117;-65